sensor_id;sensor_type;location;lat;lon;timestamp;pressure;altitude;pressure_sealevel;temperature;humidity
68871;BME280;55906;52.278;6.808;2023-04-16T00:00:21;101900.94;;;9.38;95.26
68871;BME280;55906;52.278;6.808;2023-04-16T00:02:48;101893.75;;;9.34;95.85
68871;BME280;55906;52.278;6.808;2023-04-16T00:05:14;101894.03;;;9.40;95.78
68871;BME280;55906;52.278;6.808;2023-04-16T00:07:41;101899.44;;;9.43;95.77
68871;BME280;55906;52.278;6.808;2023-04-16T00:10:09;101901.44;;;9.49;95.11
68871;BME280;55906;52.278;6.808;2023-04-16T00:12:36;101890.88;;;9.47;95.40
68871;BME280;55906;52.278;6.808;2023-04-16T00:15:03;101889.06;;;9.46;95.51
68871;BME280;55906;52.278;6.808;2023-04-16T00:17:29;101891.56;;;9.43;95.90
68871;BME280;55906;52.278;6.808;2023-04-16T00:19:56;101892.66;;;9.48;96.08
68871;BME280;55906;52.278;6.808;2023-04-16T00:22:23;101900.00;;;9.55;95.09
68871;BME280;55906;52.278;6.808;2023-04-16T00:24:49;101887.28;;;9.45;96.07
68871;BME280;55906;52.278;6.808;2023-04-16T00:27:18;101898.22;;;9.54;95.61
68871;BME280;55906;52.278;6.808;2023-04-16T00:29:44;101895.50;;;9.53;95.53
68871;BME280;55906;52.278;6.808;2023-04-16T00:32:11;101901.88;;;9.58;95.29
68871;BME280;55906;52.278;6.808;2023-04-16T00:34:38;101902.84;;;9.60;94.95
68871;BME280;55906;52.278;6.808;2023-04-16T00:37:04;101903.75;;;9.60;95.15
68871;BME280;55906;52.278;6.808;2023-04-16T00:39:31;101906.50;;;9.63;94.81
68871;BME280;55906;52.278;6.808;2023-04-16T00:41:58;101911.41;;;9.56;95.36
68871;BME280;55906;52.278;6.808;2023-04-16T00:44:26;101906.38;;;9.60;94.35
68871;BME280;55906;52.278;6.808;2023-04-16T00:46:54;101900.16;;;9.58;95.28
68871;BME280;55906;52.278;6.808;2023-04-16T00:49:21;101908.25;;;9.63;94.82
68871;BME280;55906;52.278;6.808;2023-04-16T00:51:49;101907.19;;;9.59;95.03
68871;BME280;55906;52.278;6.808;2023-04-16T00:54:15;101911.78;;;9.63;94.61
68871;BME280;55906;52.278;6.808;2023-04-16T00:56:42;101915.28;;;9.64;94.77
68871;BME280;55906;52.278;6.808;2023-04-16T00:59:10;101902.69;;;9.57;95.29
68871;BME280;55906;52.278;6.808;2023-04-16T01:01:38;101912.59;;;9.62;94.95
68871;BME280;55906;52.278;6.808;2023-04-16T01:04:05;101914.31;;;9.62;94.85
68871;BME280;55906;52.278;6.808;2023-04-16T01:06:32;101918.75;;;9.63;94.71
68871;BME280;55906;52.278;6.808;2023-04-16T01:08:58;101919.50;;;9.60;94.83
68871;BME280;55906;52.278;6.808;2023-04-16T01:11:26;101929.13;;;9.60;94.96
68871;BME280;55906;52.278;6.808;2023-04-16T01:13:52;101925.03;;;9.67;94.53
68871;BME280;55906;52.278;6.808;2023-04-16T01:16:19;101933.91;;;9.69;94.42
68871;BME280;55906;52.278;6.808;2023-04-16T01:18:47;101926.84;;;9.68;94.61
68871;BME280;55906;52.278;6.808;2023-04-16T01:21:15;101929.41;;;9.66;94.58
68871;BME280;55906;52.278;6.808;2023-04-16T01:23:41;101933.75;;;9.66;94.68
68871;BME280;55906;52.278;6.808;2023-04-16T01:26:08;101934.38;;;9.60;95.06
68871;BME280;55906;52.278;6.808;2023-04-16T01:28:35;101938.03;;;9.63;95.10
68871;BME280;55906;52.278;6.808;2023-04-16T01:31:01;101939.28;;;9.72;94.22
68871;BME280;55906;52.278;6.808;2023-04-16T01:33:28;101935.97;;;9.76;93.96
68871;BME280;55906;52.278;6.808;2023-04-16T01:35:54;101949.94;;;9.75;94.11
68871;BME280;55906;52.278;6.808;2023-04-16T01:38:22;101953.69;;;9.80;93.70
68871;BME280;55906;52.278;6.808;2023-04-16T01:40:49;101940.34;;;9.75;93.97
68871;BME280;55906;52.278;6.808;2023-04-16T01:43:16;101948.28;;;9.77;94.02
68871;BME280;55906;52.278;6.808;2023-04-16T01:45:42;101943.25;;;9.81;93.31
68871;BME280;55906;52.278;6.808;2023-04-16T01:48:09;101941.50;;;9.82;93.29
68871;BME280;55906;52.278;6.808;2023-04-16T01:50:36;101942.41;;;9.82;93.44
68871;BME280;55906;52.278;6.808;2023-04-16T01:53:02;101934.94;;;9.72;93.76
68871;BME280;55906;52.278;6.808;2023-04-16T01:55:31;101940.47;;;9.78;93.51
68871;BME280;55906;52.278;6.808;2023-04-16T01:57:58;101937.84;;;9.78;93.34
68871;BME280;55906;52.278;6.808;2023-04-16T02:00:25;101944.06;;;9.80;93.11
68871;BME280;55906;52.278;6.808;2023-04-16T02:02:52;101935.84;;;9.73;93.77
68871;BME280;55906;52.278;6.808;2023-04-16T02:05:18;101942.22;;;9.78;93.54
68871;BME280;55906;52.278;6.808;2023-04-16T02:07:45;101939.84;;;9.84;93.11
68871;BME280;55906;52.278;6.808;2023-04-16T02:10:11;101945.03;;;9.82;92.86
68871;BME280;55906;52.278;6.808;2023-04-16T02:12:39;101941.72;;;9.86;92.71
68871;BME280;55906;52.278;6.808;2023-04-16T02:15:07;101941.50;;;9.82;93.26
68871;BME280;55906;52.278;6.808;2023-04-16T02:17:34;101935.34;;;9.81;93.09
68871;BME280;55906;52.278;6.808;2023-04-16T02:20:00;101941.50;;;9.82;92.82
68871;BME280;55906;52.278;6.808;2023-04-16T02:22:29;101940.75;;;9.84;92.43
68871;BME280;55906;52.278;6.808;2023-04-16T02:24:56;101945.88;;;9.81;92.83
68871;BME280;55906;52.278;6.808;2023-04-16T02:27:23;101943.47;;;9.86;92.24
68871;BME280;55906;52.278;6.808;2023-04-16T02:29:51;101939.09;;;9.86;92.29
68871;BME280;55906;52.278;6.808;2023-04-16T02:32:18;101941.66;;;9.85;92.22
68871;BME280;55906;52.278;6.808;2023-04-16T02:34:45;101948.28;;;9.77;92.44
68871;BME280;55906;52.278;6.808;2023-04-16T02:37:11;101947.88;;;9.87;91.99
68871;BME280;55906;52.278;6.808;2023-04-16T02:39:39;101941.78;;;9.88;91.75
68871;BME280;55906;52.278;6.808;2023-04-16T02:42:07;101946.91;;;9.85;92.02
68871;BME280;55906;52.278;6.808;2023-04-16T02:44:33;101939.94;;;9.85;91.82
68871;BME280;55906;52.278;6.808;2023-04-16T02:47:01;101945.31;;;9.88;91.54
68871;BME280;55906;52.278;6.808;2023-04-16T02:49:28;101946.22;;;9.89;91.34
68871;BME280;55906;52.278;6.808;2023-04-16T02:51:55;101951.47;;;9.89;91.11
68871;BME280;55906;52.278;6.808;2023-04-16T02:54:22;101954.72;;;9.83;91.72
68871;BME280;55906;52.278;6.808;2023-04-16T02:56:48;101947.94;;;9.88;91.14
68871;BME280;55906;52.278;6.808;2023-04-16T02:59:15;101947.88;;;9.87;91.57
68871;BME280;55906;52.278;6.808;2023-04-16T03:01:42;101952.44;;;9.91;90.99
68871;BME280;55906;52.278;6.808;2023-04-16T03:04:10;101954.09;;;9.89;90.92
68871;BME280;55906;52.278;6.808;2023-04-16T03:06:36;101952.44;;;9.91;90.99
68871;BME280;55906;52.278;6.808;2023-04-16T03:09:03;101956.59;;;9.86;91.22
68871;BME280;55906;52.278;6.808;2023-04-16T03:11:30;101957.56;;;9.88;91.04
68871;BME280;55906;52.278;6.808;2023-04-16T03:13:56;101965.38;;;9.86;91.16
68871;BME280;55906;52.278;6.808;2023-04-16T03:16:23;101960.13;;;9.86;91.01
68871;BME280;55906;52.278;6.808;2023-04-16T03:18:49;101961.16;;;9.90;90.90
68871;BME280;55906;52.278;6.808;2023-04-16T03:21:17;101961.09;;;9.88;90.66
68871;BME280;55906;52.278;6.808;2023-04-16T03:23:44;101966.81;;;9.80;90.92
68871;BME280;55906;52.278;6.808;2023-04-16T03:26:11;101975.06;;;9.87;90.61
68871;BME280;55906;52.278;6.808;2023-04-16T03:28:37;101960.88;;;9.84;90.65
68871;BME280;55906;52.278;6.808;2023-04-16T03:31:04;101967.94;;;9.85;90.48
68871;BME280;55906;52.278;6.808;2023-04-16T03:33:31;101968.69;;;9.82;91.05
68871;BME280;55906;52.278;6.808;2023-04-16T03:35:57;101958.41;;;9.87;90.57
68871;BME280;55906;52.278;6.808;2023-04-16T03:38:25;101963.78;;;9.90;90.33
68871;BME280;55906;52.278;6.808;2023-04-16T03:40:52;101963.72;;;9.88;90.24
68871;BME280;55906;52.278;6.808;2023-04-16T03:43:19;101964.13;;;9.78;90.82
68871;BME280;55906;52.278;6.808;2023-04-16T03:45:46;101961.72;;;9.83;90.66
68871;BME280;55906;52.278;6.808;2023-04-16T03:48:12;101971.41;;;9.84;90.44
68871;BME280;55906;52.278;6.808;2023-04-16T03:50:44;101975.00;;;9.86;90.19
68871;BME280;55906;52.278;6.808;2023-04-16T03:53:10;101969.38;;;9.78;90.61
68871;BME280;55906;52.278;6.808;2023-04-16T03:55:38;101973.59;;;9.75;90.51
68871;BME280;55906;52.278;6.808;2023-04-16T03:58:05;101960.47;;;9.75;90.24
68871;BME280;55906;52.278;6.808;2023-04-16T04:00:31;101976.97;;;9.72;90.24
68871;BME280;55906;52.278;6.808;2023-04-16T04:02:58;101969.03;;;9.71;90.27
68871;BME280;55906;52.278;6.808;2023-04-16T04:05:25;101971.66;;;9.71;89.76
68871;BME280;55906;52.278;6.808;2023-04-16T04:07:51;101972.88;;;9.59;90.80
68871;BME280;55906;52.278;6.808;2023-04-16T04:10:18;101975.78;;;9.66;90.19
68871;BME280;55906;52.278;6.808;2023-04-16T04:12:46;101976.63;;;9.65;90.29
68871;BME280;55906;52.278;6.808;2023-04-16T04:15:12;101976.69;;;9.66;90.19
68871;BME280;55906;52.278;6.808;2023-04-16T04:17:39;101979.09;;;9.61;90.48
68871;BME280;55906;52.278;6.808;2023-04-16T04:20:06;101970.25;;;9.59;90.72
68871;BME280;55906;52.278;6.808;2023-04-16T04:22:33;101980.81;;;9.61;90.66
68871;BME280;55906;52.278;6.808;2023-04-16T04:25:00;101982.84;;;9.67;90.15
68871;BME280;55906;52.278;6.808;2023-04-16T04:27:26;101985.41;;;9.65;90.00
68871;BME280;55906;52.278;6.808;2023-04-16T04:29:55;101991.56;;;9.66;90.11
68871;BME280;55906;52.278;6.808;2023-04-16T04:32:22;101995.69;;;9.60;90.45
68871;BME280;55906;52.278;6.808;2023-04-16T04:34:48;101993.13;;;9.62;90.52
68871;BME280;55906;52.278;6.808;2023-04-16T04:37:15;101998.25;;;9.59;90.23
68871;BME280;55906;52.278;6.808;2023-04-16T04:39:42;101999.91;;;9.57;90.05
68871;BME280;55906;52.278;6.808;2023-04-16T04:42:08;102005.91;;;9.54;90.23
68871;BME280;55906;52.278;6.808;2023-04-16T04:44:35;102002.16;;;9.49;90.35
68871;BME280;55906;52.278;6.808;2023-04-16T04:47:03;102005.00;;;9.54;90.47
68871;BME280;55906;52.278;6.808;2023-04-16T04:49:30;102011.09;;;9.53;90.65
68871;BME280;55906;52.278;6.808;2023-04-16T04:51:57;102009.56;;;9.58;90.26
68871;BME280;55906;52.278;6.808;2023-04-16T04:54:23;102016.63;;;9.59;90.33
68871;BME280;55906;52.278;6.808;2023-04-16T04:56:50;102014.69;;;9.55;90.35
68871;BME280;55906;52.278;6.808;2023-04-16T04:59:18;102016.03;;;9.65;89.78
68871;BME280;55906;52.278;6.808;2023-04-16T05:01:45;102012.72;;;9.69;89.63
68871;BME280;55906;52.278;6.808;2023-04-16T05:04:13;102010.41;;;9.57;90.45
68871;BME280;55906;52.278;6.808;2023-04-16T05:06:40;102016.72;;;9.60;90.22
68871;BME280;55906;52.278;6.808;2023-04-16T05:09:07;102019.13;;;9.56;90.50
68871;BME280;55906;52.278;6.808;2023-04-16T05:11:35;102019.13;;;9.56;89.98
68871;BME280;55906;52.278;6.808;2023-04-16T05:14:02;102019.94;;;9.55;90.08
68871;BME280;55906;52.278;6.808;2023-04-16T05:16:29;102026.31;;;9.60;89.66
68871;BME280;55906;52.278;6.808;2023-04-16T05:18:55;102030.66;;;9.59;89.68
68871;BME280;55906;52.278;6.808;2023-04-16T05:21:23;102034.03;;;9.57;89.41
68871;BME280;55906;52.278;6.808;2023-04-16T05:23:50;102034.06;;;9.39;89.57
68871;BME280;55906;52.278;6.808;2023-04-16T05:26:17;102037.50;;;9.56;89.38
68871;BME280;55906;52.278;6.808;2023-04-16T05:28:43;102055.75;;;9.53;89.10
68871;BME280;55906;52.278;6.808;2023-04-16T05:31:10;102052.22;;;9.52;89.03
68871;BME280;55906;52.278;6.808;2023-04-16T05:33:37;102051.47;;;9.55;88.60
68871;BME280;55906;52.278;6.808;2023-04-16T05:36:03;102049.06;;;9.59;88.68
68871;BME280;55906;52.278;6.808;2023-04-16T05:38:32;102064.06;;;9.62;88.26
68871;BME280;55906;52.278;6.808;2023-04-16T05:40:58;102068.78;;;9.51;88.65
68871;BME280;55906;52.278;6.808;2023-04-16T05:43:25;102061.44;;;9.62;88.00
68871;BME280;55906;52.278;6.808;2023-04-16T05:45:51;102064.38;;;9.68;87.84
68871;BME280;55906;52.278;6.808;2023-04-16T05:48:18;102059.56;;;9.59;88.01
68871;BME280;55906;52.278;6.808;2023-04-16T05:50:45;102059.56;;;9.59;87.96
68871;BME280;55906;52.278;6.808;2023-04-16T05:53:11;102071.81;;;9.59;87.93
68871;BME280;55906;52.278;6.808;2023-04-16T05:55:40;102067.16;;;9.71;87.55
68871;BME280;55906;52.278;6.808;2023-04-16T05:58:07;102069.69;;;9.70;87.39
68871;BME280;55906;52.278;6.808;2023-04-16T06:00:34;102076.38;;;9.63;87.51
68871;BME280;55906;52.278;6.808;2023-04-16T06:03:01;102078.25;;;9.66;87.53
68871;BME280;55906;52.278;6.808;2023-04-16T06:05:28;102081.94;;;9.69;87.19
68871;BME280;55906;52.278;6.808;2023-04-16T06:07:55;102086.13;;;9.66;87.33
68871;BME280;55906;52.278;6.808;2023-04-16T06:10:21;102085.97;;;9.80;87.00
68871;BME280;55906;52.278;6.808;2023-04-16T06:12:49;102088.69;;;9.82;86.96
68871;BME280;55906;52.278;6.808;2023-04-16T06:15:16;102095.59;;;9.80;86.03
68871;BME280;55906;52.278;6.808;2023-04-16T06:17:43;102086.22;;;9.85;86.46
68871;BME280;55906;52.278;6.808;2023-04-16T06:20:11;102094.25;;;9.88;86.47
68871;BME280;55906;52.278;6.808;2023-04-16T06:22:37;102089.13;;;9.91;86.52
68871;BME280;55906;52.278;6.808;2023-04-16T06:25:05;102089.97;;;9.90;86.13
68871;BME280;55906;52.278;6.808;2023-04-16T06:27:32;102087.41;;;9.91;86.22
68871;BME280;55906;52.278;6.808;2023-04-16T06:30:00;102091.28;;;10.00;86.09
68871;BME280;55906;52.278;6.808;2023-04-16T06:32:27;102093.84;;;9.98;85.94
68871;BME280;55906;52.278;6.808;2023-04-16T06:34:53;102100.63;;;9.93;85.85
68871;BME280;55906;52.278;6.808;2023-04-16T06:37:20;102104.22;;;9.95;86.20
68871;BME280;55906;52.278;6.808;2023-04-16T06:39:47;102108.66;;;9.96;85.83
68871;BME280;55906;52.278;6.808;2023-04-16T06:42:13;102109.38;;;10.11;85.68
68871;BME280;55906;52.278;6.808;2023-04-16T06:44:40;102105.94;;;10.12;85.68
68871;BME280;55906;52.278;6.808;2023-04-16T06:47:08;102112.78;;;10.26;85.18
68871;BME280;55906;52.278;6.808;2023-04-16T06:49:35;102112.78;;;10.26;84.74
68871;BME280;55906;52.278;6.808;2023-04-16T06:52:01;102121.84;;;10.33;84.37
68871;BME280;55906;52.278;6.808;2023-04-16T06:54:28;102119.19;;;10.51;84.01
68871;BME280;55906;52.278;6.808;2023-04-16T06:56:55;102122.41;;;10.63;83.92
68871;BME280;55906;52.278;6.808;2023-04-16T06:59:21;102124.63;;;10.73;83.16
68871;BME280;55906;52.278;6.808;2023-04-16T07:01:48;102121.16;;;10.55;82.52
68871;BME280;55906;52.278;6.808;2023-04-16T07:04:17;102130.22;;;10.62;83.11
68871;BME280;55906;52.278;6.808;2023-04-16T07:06:43;102133.19;;;10.50;82.11
68871;BME280;55906;52.278;6.808;2023-04-16T07:09:10;102128.09;;;10.72;82.90
68871;BME280;55906;52.278;6.808;2023-04-16T07:11:37;102139.16;;;10.84;82.16
68871;BME280;55906;52.278;6.808;2023-04-16T07:14:04;102128.22;;;10.75;80.71
68871;BME280;55906;52.278;6.808;2023-04-16T07:16:30;102133.63;;;10.78;81.75
68871;BME280;55906;52.278;6.808;2023-04-16T07:18:57;102134.66;;;11.01;81.50
68871;BME280;55906;52.278;6.808;2023-04-16T07:21:25;102131.81;;;10.97;80.59
68871;BME280;55906;52.278;6.808;2023-04-16T07:23:51;102135.34;;;10.97;81.02
68871;BME280;55906;52.278;6.808;2023-04-16T07:26:18;102131.19;;;10.83;81.35
68871;BME280;55906;52.278;6.808;2023-04-16T07:28:45;102139.44;;;10.90;80.97
68871;BME280;55906;52.278;6.808;2023-04-16T07:31:12;102140.13;;;11.06;80.63
68871;BME280;55906;52.278;6.808;2023-04-16T07:33:38;102140.94;;;11.05;80.23
68871;BME280;55906;52.278;6.808;2023-04-16T07:36:05;102136.59;;;11.05;80.18
68871;BME280;55906;52.278;6.808;2023-04-16T07:38:33;102141.19;;;11.30;80.31
68871;BME280;55906;52.278;6.808;2023-04-16T07:41:00;102136.97;;;11.54;79.57
68871;BME280;55906;52.278;6.808;2023-04-16T07:43:27;102147.94;;;11.44;79.11
68871;BME280;55906;52.278;6.808;2023-04-16T07:45:53;102148.91;;;11.46;79.06
68871;BME280;55906;52.278;6.808;2023-04-16T07:48:20;102153.03;;;11.61;78.56
68871;BME280;55906;52.278;6.808;2023-04-16T07:50:47;102145.75;;;11.74;78.26
68871;BME280;55906;52.278;6.808;2023-04-16T07:53:14;102140.69;;;11.79;78.34
68871;BME280;55906;52.278;6.808;2023-04-16T07:55:42;102138.75;;;11.96;77.36
68871;BME280;55906;52.278;6.808;2023-04-16T07:58:08;102157.72;;;11.87;77.17
68871;BME280;55906;52.278;6.808;2023-04-16T08:00:35;102151.56;;;11.87;77.30
68871;BME280;55906;52.278;6.808;2023-04-16T08:03:02;102161.69;;;11.98;77.14
68871;BME280;55906;52.278;6.808;2023-04-16T08:05:29;102157.41;;;12.00;77.15
68871;BME280;55906;52.278;6.808;2023-04-16T08:07:56;102159.09;;;12.21;76.68
68871;BME280;55906;52.278;6.808;2023-04-16T08:10:22;102166.22;;;12.23;75.80
68871;BME280;55906;52.278;6.808;2023-04-16T08:12:50;102165.56;;;12.29;75.69
68871;BME280;55906;52.278;6.808;2023-04-16T08:15:17;102165.28;;;12.21;75.62
68871;BME280;55906;52.278;6.808;2023-04-16T08:17:44;102164.19;;;12.38;75.59
68871;BME280;55906;52.278;6.808;2023-04-16T08:20:10;102164.72;;;12.52;75.54
68871;BME280;55906;52.278;6.808;2023-04-16T08:22:37;102169.59;;;12.64;74.91
68871;BME280;55906;52.278;6.808;2023-04-16T08:25:04;102169.47;;;12.61;75.08
68871;BME280;55906;52.278;6.808;2023-04-16T08:27:31;102169.75;;;12.68;74.72
68871;BME280;55906;52.278;6.808;2023-04-16T08:29:59;102182.50;;;12.56;73.85
68871;BME280;55906;52.278;6.808;2023-04-16T08:32:25;102184.22;;;12.56;74.20
68871;BME280;55906;52.278;6.808;2023-04-16T08:34:52;102182.34;;;12.75;73.27
68871;BME280;55906;52.278;6.808;2023-04-16T08:37:19;102179.41;;;12.68;73.14
68871;BME280;55906;52.278;6.808;2023-04-16T08:39:45;102180.66;;;12.77;73.44
68871;BME280;55906;52.278;6.808;2023-04-16T08:42:17;102185.50;;;12.89;73.01
68871;BME280;55906;52.278;6.808;2023-04-16T08:44:47;102192.19;;;13.02;72.86
68871;BME280;55906;52.278;6.808;2023-04-16T08:47:16;102198.44;;;13.04;72.11
68871;BME280;55906;52.278;6.808;2023-04-16T08:49:43;102197.69;;;13.08;72.76
68871;BME280;55906;52.278;6.808;2023-04-16T08:52:14;102203.00;;;13.32;71.69
68871;BME280;55906;52.278;6.808;2023-04-16T08:54:45;102200.03;;;13.47;71.80
68871;BME280;55906;52.278;6.808;2023-04-16T08:57:16;102200.03;;;13.47;71.09
68871;BME280;55906;52.278;6.808;2023-04-16T08:59:44;102197.75;;;13.57;71.04
68871;BME280;55906;52.278;6.808;2023-04-16T09:02:12;102201.25;;;13.56;69.86
68871;BME280;55906;52.278;6.808;2023-04-16T09:04:40;102205.00;;;13.63;69.24
68871;BME280;55906;52.278;6.808;2023-04-16T09:07:07;102197.13;;;13.64;70.35
68871;BME280;55906;52.278;6.808;2023-04-16T09:09:34;102202.94;;;13.80;69.66
68871;BME280;55906;52.278;6.808;2023-04-16T09:12:03;102212.50;;;14.01;69.05
68871;BME280;55906;52.278;6.808;2023-04-16T09:14:30;102206.75;;;14.15;68.68
68871;BME280;55906;52.278;6.808;2023-04-16T09:16:57;102211.50;;;14.25;68.22
68871;BME280;55906;52.278;6.808;2023-04-16T09:19:25;102214.63;;;14.38;68.41
68871;BME280;55906;52.278;6.808;2023-04-16T09:21:53;102214.47;;;14.61;66.21
68871;BME280;55906;52.278;6.808;2023-04-16T09:24:20;102212.31;;;14.48;67.28
68871;BME280;55906;52.278;6.808;2023-04-16T09:26:47;102206.69;;;14.65;66.01
68871;BME280;55906;52.278;6.808;2023-04-16T09:29:32;102210.47;;;14.73;64.66
68871;BME280;55906;52.278;6.808;2023-04-16T09:32:04;102210.34;;;14.99;64.57
68871;BME280;55906;52.278;6.808;2023-04-16T09:34:31;102215.94;;;15.10;64.59
68871;BME280;55906;52.278;6.808;2023-04-16T09:39:56;102208.69;;;15.64;63.40
68871;BME280;55906;52.278;6.808;2023-04-16T09:42:25;102218.94;;;15.83;62.09
68871;BME280;55906;52.278;6.808;2023-04-16T09:44:53;102229.56;;;15.53;61.98
68871;BME280;55906;52.278;6.808;2023-04-16T09:47:20;102225.88;;;15.78;63.36
68871;BME280;55906;52.278;6.808;2023-04-16T09:49:47;102225.56;;;15.66;63.00
68871;BME280;55906;52.278;6.808;2023-04-16T09:52:14;102224.56;;;15.95;62.54
68871;BME280;55906;52.278;6.808;2023-04-16T09:54:45;102227.88;;;16.21;61.67
68871;BME280;55906;52.278;6.808;2023-04-16T09:57:16;102234.00;;;16.19;61.53
68871;BME280;55906;52.278;6.808;2023-04-16T09:59:45;102230.31;;;16.14;62.82
68871;BME280;55906;52.278;6.808;2023-04-16T10:02:11;102229.06;;;16.34;60.87
68871;BME280;55906;52.278;6.808;2023-04-16T10:04:49;102229.09;;;16.72;59.55
68871;BME280;55906;52.278;6.808;2023-04-16T10:07:16;102233.88;;;16.88;59.80
68871;BME280;55906;52.278;6.808;2023-04-16T10:09:43;102231.81;;;16.75;59.20
68871;BME280;55906;52.278;6.808;2023-04-16T10:12:10;102233.75;;;16.82;59.65
68871;BME280;55906;52.278;6.808;2023-04-16T10:14:39;102232.94;;;16.86;57.91
68871;BME280;55906;52.278;6.808;2023-04-16T10:17:06;102229.91;;;17.08;58.59
68871;BME280;55906;52.278;6.808;2023-04-16T10:19:34;102224.94;;;17.25;56.28
68871;BME280;55906;52.278;6.808;2023-04-16T10:22:00;102228.34;;;17.63;56.31
68871;BME280;55906;52.278;6.808;2023-04-16T10:24:27;102226.81;;;17.74;55.83
68871;BME280;55906;52.278;6.808;2023-04-16T10:26:56;102232.31;;;17.83;54.34
68871;BME280;55906;52.278;6.808;2023-04-16T10:29:24;102220.09;;;17.95;55.35
68871;BME280;55906;52.278;6.808;2023-04-16T10:31:54;102230.16;;;18.12;53.94
68871;BME280;55906;52.278;6.808;2023-04-16T10:34:22;102228.22;;;18.04;55.11
68871;BME280;55906;52.278;6.808;2023-04-16T10:36:51;102230.28;;;18.73;53.72
68871;BME280;55906;52.278;6.808;2023-04-16T10:39:20;102231.19;;;18.75;52.90
68871;BME280;55906;52.278;6.808;2023-04-16T10:41:47;102228.34;;;18.63;54.20
68871;BME280;55906;52.278;6.808;2023-04-16T10:44:16;102234.16;;;18.96;53.15
68871;BME280;55906;52.278;6.808;2023-04-16T10:46:45;102226.19;;;18.40;53.24
68871;BME280;55906;52.278;6.808;2023-04-16T10:49:15;102229.34;;;18.71;53.16
68871;BME280;55906;52.278;6.808;2023-04-16T10:51:52;102222.94;;;18.60;52.27
68871;BME280;55906;52.278;6.808;2023-04-16T10:54:21;102219.09;;;18.41;52.90
68871;BME280;55906;52.278;6.808;2023-04-16T10:56:49;102221.28;;;18.66;53.07
68871;BME280;55906;52.278;6.808;2023-04-16T10:59:17;102229.16;;;18.60;51.99
68871;BME280;55906;52.278;6.808;2023-04-16T11:01:46;102221.75;;;18.39;52.58
68871;BME280;55906;52.278;6.808;2023-04-16T11:04:28;102227.00;;;18.94;51.43
68871;BME280;55906;52.278;6.808;2023-04-16T11:07:19;102221.22;;;19.30;50.99
68871;BME280;55906;52.278;6.808;2023-04-16T11:09:56;102223.34;;;18.87;50.46
68871;BME280;55906;52.278;6.808;2023-04-16T11:12:25;102218.50;;;19.25;50.95
68871;BME280;55906;52.278;6.808;2023-04-16T11:15:02;102225.25;;;18.37;51.65
68871;BME280;55906;52.278;6.808;2023-04-16T11:17:32;102226.66;;;18.68;52.23
68871;BME280;55906;52.278;6.808;2023-04-16T11:20:04;102226.34;;;18.49;51.33
68871;BME280;55906;52.278;6.808;2023-04-16T11:22:33;102226.19;;;18.40;53.01
68871;BME280;55906;52.278;6.808;2023-04-16T11:25:00;102219.78;;;18.86;52.09
68871;BME280;55906;52.278;6.808;2023-04-16T11:27:29;102222.63;;;18.99;50.73
68871;BME280;55906;52.278;6.808;2023-04-16T11:29:56;102224.53;;;19.09;50.94
68871;BME280;55906;52.278;6.808;2023-04-16T11:32:24;102224.34;;;18.94;51.13
68871;BME280;55906;52.278;6.808;2023-04-16T11:34:50;102225.66;;;19.28;51.40
68871;BME280;55906;52.278;6.808;2023-04-16T11:37:20;102227.19;;;19.81;50.47
68871;BME280;55906;52.278;6.808;2023-04-16T11:39:49;102212.44;;;20.26;49.60
68871;BME280;55906;52.278;6.808;2023-04-16T11:42:20;102224.84;;;20.18;48.45
68871;BME280;55906;52.278;6.808;2023-04-16T11:44:51;102220.50;;;20.32;49.27
68871;BME280;55906;52.278;6.808;2023-04-16T11:47:18;102220.75;;;20.64;47.99
68871;BME280;55906;52.278;6.808;2023-04-16T11:49:45;102216.53;;;21.01;46.93
68871;BME280;55906;52.278;6.808;2023-04-16T11:52:12;102217.66;;;21.72;47.18
68871;BME280;55906;52.278;6.808;2023-04-16T11:54:40;102219.47;;;21.91;44.29
68871;BME280;55906;52.278;6.808;2023-04-16T11:57:07;102221.16;;;21.39;44.46
68871;BME280;55906;52.278;6.808;2023-04-16T11:59:33;102214.91;;;21.42;46.73
68871;BME280;55906;52.278;6.808;2023-04-16T12:02:01;102224.72;;;21.43;45.78
68871;BME280;55906;52.278;6.808;2023-04-16T12:04:28;102217.25;;;20.76;46.06
68871;BME280;55906;52.278;6.808;2023-04-16T12:07:07;102214.78;;;21.09;45.72
68871;BME280;55906;52.278;6.808;2023-04-16T12:09:35;102228.78;;;20.66;45.65
68871;BME280;55906;52.278;6.808;2023-04-16T12:12:04;102233.63;;;20.05;46.91
68871;BME280;55906;52.278;6.808;2023-04-16T12:14:31;102233.63;;;20.02;46.90
68871;BME280;55906;52.278;6.808;2023-04-16T12:17:16;102222.41;;;20.47;45.71
68871;BME280;55906;52.278;6.808;2023-04-16T12:19:50;102221.63;;;20.62;45.92
68871;BME280;55906;52.278;6.808;2023-04-16T12:22:17;102219.41;;;21.53;45.09
68871;BME280;55906;52.278;6.808;2023-04-16T12:24:54;102222.16;;;22.69;43.30
68871;BME280;55906;52.278;6.808;2023-04-16T12:27:23;102219.44;;;22.86;42.80
68871;BME280;55906;52.278;6.808;2023-04-16T12:30:02;102219.47;;;22.67;40.13
68871;BME280;55906;52.278;6.808;2023-04-16T12:32:29;102222.03;;;23.09;42.60
68871;BME280;55906;52.278;6.808;2023-04-16T12:34:56;102220.13;;;23.34;39.40
68871;BME280;55906;52.278;6.808;2023-04-16T12:37:22;102217.47;;;23.27;39.71
68871;BME280;55906;52.278;6.808;2023-04-16T12:39:49;102218.50;;;23.01;40.11
68871;BME280;55906;52.278;6.808;2023-04-16T12:42:16;102221.22;;;22.90;42.16
68871;BME280;55906;52.278;6.808;2023-04-16T12:44:44;102220.44;;;22.13;41.71
68871;BME280;55906;52.278;6.808;2023-04-16T12:47:10;102222.19;;;22.08;43.44
68871;BME280;55906;52.278;6.808;2023-04-16T12:49:37;102219.53;;;22.26;42.88
68871;BME280;55906;52.278;6.808;2023-04-16T12:52:04;102226.63;;;22.01;41.46
68871;BME280;55906;52.278;6.808;2023-04-16T12:54:31;102226.59;;;21.71;42.79
68871;BME280;55906;52.278;6.808;2023-04-16T12:56:57;102227.50;;;21.82;42.80
68871;BME280;55906;52.278;6.808;2023-04-16T12:59:24;102216.78;;;21.96;42.52